Time;durP1;ratioP1;P1;durP2;ratioP2;P2;SDS_P1;SDS_P2;PMS_P1;PMS_P2;Temp;Humidity;BMP_temperature;BMP_pressure;BME280_temperature;BME280_humidity;BME280_pressure;Samples;Min_cycle;Max_cycle;Signal;HPM_P1;HPM_P2
2021/12/24 00:00:04;;;;;;;28.00;26.50;;;;;;;;;;5092236;28;20190;-74
2021/12/24 00:02:30;;;;;;;26.97;25.57;;;;;;;;;;5091845;28;20699;-74
2021/12/24 00:04:57;;;;;;;27.77;26.27;;;;;;;;;;5091842;28;20236;-74
2021/12/24 00:07:24;;;;;;;29.07;27.47;;;;;;;;;;5091811;28;20281;-74
2021/12/24 00:09:52;;;;;;;28.23;26.63;;;;;;;;;;5091814;28;20206;-73
2021/12/24 00:12:20;;;;;;;28.53;26.57;;;;;;;;;;5091820;28;20668;-73
2021/12/24 00:14:52;;;;;;;30.03;28.33;;;;;;;;;;5091672;28;20236;-73
2021/12/24 00:17:25;;;;;;;30.20;28.47;;;;;;;;;;5091760;28;20719;-73
2021/12/24 00:20:06;;;;;;;32.17;30.27;;;;;;;;;;5092009;28;20186;-74
2021/12/24 00:36:11;;;;;;;22.90;21.63;;;;;;;;;;5095724;28;20181;-74
2021/12/24 00:38:38;;;;;;;22.80;21.70;;;;;;;;;;5095661;28;20189;-74
2021/12/24 00:41:06;;;;;;;21.93;20.83;;;;;;;;;;5095453;28;20572;-74
2021/12/24 00:43:33;;;;;;;24.40;23.20;;;;;;;;;;5095210;28;20328;-74
2021/12/24 00:46:00;;;;;;;23.37;22.17;;;;;;;;;;5095786;28;20194;-74
2021/12/24 00:48:26;;;;;;;22.93;21.73;;;;;;;;;;5095383;28;20724;-74
2021/12/24 00:51:06;;;;;;;22.27;21.07;;;;;;;;;;5095433;28;20194;-73
2021/12/24 00:56:20;;;;;;;23.33;22.03;;;;;;;;;;5095318;28;20663;-74
2021/12/24 00:58:47;;;;;;;29.97;27.73;;;;;;;;;;5095182;28;20194;-73
2021/12/24 01:01:15;;;;;;;28.53;25.53;;;;;;;;;;5095428;28;20194;-73
2021/12/24 01:03:43;;;;;;;28.20;26.50;;;;;;;;;;5095155;28;20564;-74
2021/12/24 01:06:09;;;;;;;26.27;24.87;;;;;;;;;;5094807;28;20276;-74
2021/12/24 01:08:36;;;;;;;26.17;24.77;;;;;;;;;;5094732;28;20201;-73
2021/12/24 01:11:07;;;;;;;27.70;26.20;;;;;;;;;;5095048;28;20279;-74
2021/12/24 01:13:36;;;;;;;27.87;26.37;;;;;;;;;;5094561;28;20706;-75
2021/12/24 01:16:08;;;;;;;24.57;23.27;;;;;;;;;;5094922;28;20232;-74
2021/12/24 01:18:43;;;;;;;24.80;23.50;;;;;;;;;;5094565;28;20281;-73
2021/12/24 01:21:23;;;;;;;25.17;23.87;;;;;;;;;;5094538;28;20196;-74
2021/12/24 01:23:52;;;;;;;25.97;24.53;;;;;;;;;;5094328;28;20312;-74
2021/12/24 01:26:24;;;;;;;22.67;21.53;;;;;;;;;;5094394;28;20567;-74
2021/12/24 01:40:05;;;;;;;25.37;24.00;;;;;;;;;;5094862;28;20636;-73
2021/12/24 01:42:42;;;;;;;25.77;24.37;;;;;;;;;;5094102;28;20189;-73
2021/12/24 01:45:21;;;;;;;31.87;29.97;;;;;;;;;;5094328;28;20242;-73
2021/12/24 01:47:48;;;;;;;24.73;23.43;;;;;;;;;;5093985;28;20194;-74
2021/12/24 01:50:15;;;;;;;23.40;22.10;;;;;;;;;;5094155;28;20716;-73
2021/12/24 01:52:41;;;;;;;32.53;30.00;;;;;;;;;;5094166;28;20193;-73
2021/12/24 01:55:09;;;;;;;27.03;25.43;;;;;;;;;;5094040;28;20284;-74
2021/12/24 01:57:36;;;;;;;32.40;30.20;;;;;;;;;;5093782;28;20278;-74
2021/12/24 02:00:04;;;;;;;27.80;26.20;;;;;;;;;;5094138;28;20255;-74
2021/12/24 02:02:33;;;;;;;31.80;29.80;;;;;;;;;;5093694;28;20276;-74
2021/12/24 02:04:59;;;;;;;36.17;33.53;;;;;;;;;;5093594;28;20683;-74
2021/12/24 02:07:26;;;;;;;30.87;29.27;;;;;;;;;;5093878;28;20236;-75
2021/12/24 02:09:54;;;;;;;30.90;29.20;;;;;;;;;;5093493;28;20194;-73
2021/12/24 02:12:23;;;;;;;37.07;33.57;;;;;;;;;;5093747;28;20273;-75
2021/12/24 02:14:53;;;;;;;33.27;31.57;;;;;;;;;;5093697;28;20257;-75
2021/12/24 02:28:38;;;;;;;31.80;30.10;;;;;;;;;;5110500;28;20230;-75
2021/12/24 02:31:05;;;;;;;30.80;29.10;;;;;;;;;;5109785;28;20197;-75
2021/12/24 02:33:32;;;;;;;31.47;29.77;;;;;;;;;;5109995;28;20197;-74
2021/12/24 02:36:00;;;;;;;32.17;30.03;;;;;;;;;;5109970;28;20192;-75
2021/12/24 02:38:27;;;;;;;31.83;30.07;;;;;;;;;;5109870;28;20267;-75
2021/12/24 02:40:54;;;;;;;30.77;29.07;;;;;;;;;;5109635;28;20243;-75
2021/12/24 02:43:23;;;;;;;34.63;31.77;;;;;;;;;;5110711;28;20227;-74
2021/12/24 02:45:52;;;;;;;30.10;28.30;;;;;;;;;;5109787;28;20197;-74
2021/12/24 02:53:59;;;;;;;27.87;26.27;;;;;;;;;;5109771;28;20273;-74
2021/12/24 02:56:30;;;;;;;27.13;25.63;;;;;;;;;;5109656;28;20197;-75
2021/12/24 02:58:57;;;;;;;31.40;29.50;;;;;;;;;;5109480;28;20213;-74
2021/12/24 03:01:25;;;;;;;29.83;28.17;;;;;;;;;;5109481;28;20258;-74
2021/12/24 03:03:52;;;;;;;28.77;27.17;;;;;;;;;;5109162;28;20640;-74
2021/12/24 03:06:22;;;;;;;30.13;28.17;;;;;;;;;;5109112;28;20254;-74
2021/12/24 03:08:49;;;;;;;26.73;25.23;;;;;;;;;;5109357;28;20233;-74
2021/12/24 03:11:15;;;;;;;30.20;28.33;;;;;;;;;;5109338;28;20227;-75
2021/12/24 03:13:43;;;;;;;26.00;24.60;;;;;;;;;;5109017;28;20229;-74
2021/12/24 03:16:10;;;;;;;27.50;25.90;;;;;;;;;;5109245;28;20225;-73
2021/12/24 03:18:39;;;;;;;25.60;24.10;;;;;;;;;;5108823;28;20776;-73
2021/12/24 03:21:10;;;;;;;27.63;25.93;;;;;;;;;;5109076;28;20194;-73
2021/12/24 03:23:41;;;;;;;28.77;27.07;;;;;;;;;;5109127;28;20190;-74
2021/12/24 03:26:09;;;;;;;28.60;26.80;;;;;;;;;;5108702;28;20651;-73
2021/12/24 03:28:36;;;;;;;30.23;28.53;;;;;;;;;;5108666;28;20254;-73
2021/12/24 03:31:03;;;;;;;30.63;28.73;;;;;;;;;;5098107;28;20256;-74
2021/12/24 03:33:30;;;;;;;31.63;29.67;;;;;;;;;;5095331;28;20235;-74
2021/12/24 03:35:56;;;;;;;32.37;30.57;;;;;;;;;;5094952;28;20229;-73
2021/12/24 03:38:23;;;;;;;31.63;29.83;;;;;;;;;;5094880;28;20202;-74
2021/12/24 03:40:51;;;;;;;31.70;30.00;;;;;;;;;;5095171;28;20255;-74
2021/12/24 03:43:18;;;;;;;31.13;29.43;;;;;;;;;;5094895;28;20194;-73
2021/12/24 03:45:56;;;;;;;28.37;26.77;;;;;;;;;;5094790;28;20212;-73
2021/12/24 03:48:27;;;;;;;28.63;27.10;;;;;;;;;;5095311;28;20627;-74
2021/12/24 03:51:00;;;;;;;27.70;26.30;;;;;;;;;;5094717;28;20237;-74
2021/12/24 03:56:15;;;;;;;29.93;27.80;;;;;;;;;;5094729;28;20186;-73
2021/12/24 03:58:41;;;;;;;31.97;28.80;;;;;;;;;;5094801;28;20210;-75
2021/12/24 04:01:08;;;;;;;30.33;28.73;;;;;;;;;;5094517;28;20190;-75
2021/12/24 04:03:35;;;;;;;28.93;27.23;;;;;;;;;;5094423;28;20204;-75
2021/12/24 04:06:02;;;;;;;26.43;24.83;;;;;;;;;;5094696;28;20603;-74
2021/12/24 04:08:28;;;;;;;27.10;25.60;;;;;;;;;;5094380;28;20194;-74
2021/12/24 04:10:55;;;;;;;25.93;24.53;;;;;;;;;;5094296;28;20194;-74
2021/12/24 04:13:23;;;;;;;27.80;26.30;;;;;;;;;;5094151;28;20626;-75
2021/12/24 04:15:50;;;;;;;28.27;26.20;;;;;;;;;;5094381;28;20194;-73
2021/12/24 04:18:22;;;;;;;25.33;24.03;;;;;;;;;;5093954;28;20727;-75
2021/12/24 04:26:17;;;;;;;24.70;23.40;;;;;;;;;;5094163;28;20286;-74
2021/12/24 04:28:45;;;;;;;23.23;22.03;;;;;;;;;;5094002;28;20289;-74
2021/12/24 04:31:12;;;;;;;23.20;22.00;;;;;;;;;;5094283;28;20270;-74
2021/12/24 04:33:45;;;;;;;25.23;23.83;;;;;;;;;;5094191;28;20193;-74
2021/12/24 04:36:33;;;;;;;24.83;23.43;;;;;;;;;;5093882;28;20231;-74
2021/12/24 04:39:23;;;;;;;24.53;23.33;;;;;;;;;;5094072;28;20210;-77
2021/12/24 04:53:12;;;;;;;24.97;23.67;;;;;;;;;;5093941;28;20213;-74
2021/12/24 05:01:18;;;;;;;26.10;24.60;;;;;;;;;;5094055;28;20193;-75
2021/12/24 05:03:46;;;;;;;26.93;25.17;;;;;;;;;;5093318;28;20193;-75
2021/12/24 05:06:26;;;;;;;25.53;23.50;;;;;;;;;;5093285;28;20200;-75
2021/12/24 05:08:55;;;;;;;25.87;24.37;;;;;;;;;;5093212;28;20185;-74
2021/12/24 05:11:23;;;;;;;25.80;24.40;;;;;;;;;;5093649;28;20608;-76
2021/12/24 05:13:50;;;;;;;25.97;24.63;;;;;;;;;;5093194;28;20193;-73
2021/12/24 05:16:20;;;;;;;29.80;28.30;;;;;;;;;;5093378;28;20194;-74
2021/12/24 05:21:43;;;;;;;28.10;26.70;;;;;;;;;;5011141;28;20196;-76
2021/12/24 05:24:12;;;;;;;30.33;28.83;;;;;;;;;;5073009;28;20206;-75
2021/12/24 05:26:39;;;;;;;27.53;26.03;;;;;;;;;;5093174;28;20212;-75
2021/12/24 05:29:07;;;;;;;27.40;26.00;;;;;;;;;;5092796;28;20626;-76
2021/12/24 05:31:35;;;;;;;26.50;25.20;;;;;;;;;;5093088;28;20656;-75
2021/12/24 05:34:02;;;;;;;27.10;25.80;;;;;;;;;;5092973;28;20197;-75
2021/12/24 05:36:29;;;;;;;28.47;26.97;;;;;;;;;;5092709;28;20287;-76
2021/12/24 05:38:56;;;;;;;28.00;26.50;;;;;;;;;;5092604;28;20193;-75
2021/12/24 05:41:22;;;;;;;26.50;25.10;;;;;;;;;;5092570;28;20233;-74
2021/12/24 05:43:49;;;;;;;26.27;24.83;;;;;;;;;;5092855;28;20281;-77
2021/12/24 05:46:16;;;;;;;27.50;26.10;;;;;;;;;;5092757;28;20200;-74
2021/12/24 05:48:44;;;;;;;29.53;27.93;;;;;;;;;;5092761;28;20196;-75
2021/12/24 05:51:11;;;;;;;26.53;25.13;;;;;;;;;;5092471;28;20190;-74
2021/12/24 05:53:38;;;;;;;27.23;25.83;;;;;;;;;;5092161;28;20194;-74
2021/12/24 05:56:05;;;;;;;27.30;25.80;;;;;;;;;;5092439;28;20675;-75
2021/12/24 05:58:31;;;;;;;27.23;25.83;;;;;;;;;;5092308;28;20277;-74
2021/12/24 06:00:58;;;;;;;28.43;26.93;;;;;;;;;;5092567;28;20229;-78
2021/12/24 06:03:25;;;;;;;27.43;26.03;;;;;;;;;;5092659;28;20641;-75
2021/12/24 06:05:53;;;;;;;27.50;26.10;;;;;;;;;;5092513;28;20542;-79
2021/12/24 06:08:20;;;;;;;25.10;23.80;;;;;;;;;;5092522;28;20274;-78
2021/12/24 06:10:46;;;;;;;27.33;25.87;;;;;;;;;;5092156;28;20194;-75
2021/12/24 06:13:13;;;;;;;25.67;24.07;;;;;;;;;;5092449;28;20200;-75
2021/12/24 06:15:45;;;;;;;26.00;24.47;;;;;;;;;;5092495;28;20285;-78
2021/12/24 06:18:19;;;;;;;27.27;25.37;;;;;;;;;;5092201;28;20257;-76
2021/12/24 06:20:45;;;;;;;22.87;21.67;;;;;;;;;;5092021;28;20209;-78
2021/12/24 06:23:13;;;;;;;25.73;24.43;;;;;;;;;;5092508;28;20198;-75
2021/12/24 06:25:40;;;;;;;26.93;25.10;;;;;;;;;;5092018;28;20752;-76
2021/12/24 06:28:07;;;;;;;25.80;24.50;;;;;;;;;;5092379;28;20613;-77
2021/12/24 06:30:34;;;;;;;27.10;25.67;;;;;;;;;;5092313;28;20274;-77
2021/12/24 06:33:00;;;;;;;26.73;25.33;;;;;;;;;;5092000;28;20240;-80
2021/12/24 06:35:27;;;;;;;26.93;25.43;;;;;;;;;;5091948;28;20687;-79
2021/12/24 06:37:56;;;;;;;26.47;25.17;;;;;;;;;;5091924;28;20729;-79
2021/12/24 06:40:24;;;;;;;26.73;25.33;;;;;;;;;;5091840;28;20238;-79
2021/12/24 06:42:51;;;;;;;25.40;24.10;;;;;;;;;;5092192;28;20228;-81
2021/12/24 06:45:22;;;;;;;24.83;23.63;;;;;;;;;;5092111;28;20198;-79
2021/12/24 06:47:49;;;;;;;25.17;23.87;;;;;;;;;;5092212;28;20186;-79
2021/12/24 06:50:15;;;;;;;24.97;23.67;;;;;;;;;;5092069;28;20272;-80
2021/12/24 06:52:42;;;;;;;25.40;24.10;;;;;;;;;;5091828;28;20200;-79
2021/12/24 06:55:10;;;;;;;24.93;23.63;;;;;;;;;;5091826;28;20288;-79
2021/12/24 06:57:40;;;;;;;25.50;24.20;;;;;;;;;;5091753;28;20193;-75
2021/12/24 07:00:07;;;;;;;24.27;22.97;;;;;;;;;;5091609;28;20260;-77
2021/12/24 07:02:34;;;;;;;23.73;22.53;;;;;;;;;;5091629;28;20289;-79
2021/12/24 07:05:01;;;;;;;24.43;23.20;;;;;;;;;;5092519;28;20226;-79
2021/12/24 07:07:27;;;;;;;27.67;26.07;;;;;;;;;;5095522;28;20259;-78
2021/12/24 07:09:54;;;;;;;27.57;26.17;;;;;;;;;;5096045;28;20259;-80
2021/12/24 07:12:21;;;;;;;28.23;26.83;;;;;;;;;;5095714;28;20194;-81
2021/12/24 07:14:49;;;;;;;26.70;25.33;;;;;;;;;;5095622;28;20278;-81
2021/12/24 07:17:16;;;;;;;26.37;25.07;;;;;;;;;;5095335;28;20236;-81
2021/12/24 07:19:43;;;;;;;27.43;25.77;;;;;;;;;;5095077;28;20677;-81
2021/12/24 07:22:10;;;;;;;25.33;24.10;;;;;;;;;;5095526;28;20205;-82
2021/12/24 07:24:37;;;;;;;24.80;23.50;;;;;;;;;;5095220;28;20285;-85
2021/12/24 07:27:04;;;;;;;25.23;24.03;;;;;;;;;;5095928;28;20280;-84
2021/12/24 07:29:31;;;;;;;25.77;24.47;;;;;;;;;;5095733;28;20705;-83
2021/12/24 07:32:00;;;;;;;26.47;25.07;;;;;;;;;;5096102;28;20204;-84
2021/12/24 07:34:26;;;;;;;27.03;25.67;;;;;;;;;;5096009;28;20236;-80
2021/12/24 07:36:53;;;;;;;26.37;25.10;;;;;;;;;;5096235;28;20206;-78
2021/12/24 07:39:20;;;;;;;24.00;22.90;;;;;;;;;;5097437;28;20223;-81
2021/12/24 07:41:47;;;;;;;23.93;22.83;;;;;;;;;;5096744;28;20204;-84
2021/12/24 07:44:16;;;;;;;24.20;23.10;;;;;;;;;;5096533;28;20194;-85
2021/12/24 07:46:46;;;;;;;29.87;28.27;;;;;;;;;;5096595;28;20198;-82
2021/12/24 07:49:29;;;;;;;22.97;21.97;;;;;;;;;;5095899;28;20182;-84
2021/12/24 07:54:38;;;;;;;20.03;19.13;;;;;;;;;;5092155;28;20201;-82
2021/12/24 07:57:06;;;;;;;20.33;19.43;;;;;;;;;;5094940;28;20190;-82
2021/12/24 07:59:35;;;;;;;20.37;19.37;;;;;;;;;;5094553;28;20202;-82
2021/12/24 08:02:02;;;;;;;21.03;19.93;;;;;;;;;;5095092;28;20675;-80
2021/12/24 08:04:30;;;;;;;26.97;25.57;;;;;;;;;;5095990;28;20204;-82
2021/12/24 08:06:57;;;;;;;23.60;22.33;;;;;;;;;;5095145;28;20190;-81
2021/12/24 08:09:23;;;;;;;23.00;21.80;;;;;;;;;;5095582;28;20575;-82
2021/12/24 08:11:50;;;;;;;22.47;21.27;;;;;;;;;;5096733;28;20225;-79
2021/12/24 08:14:17;;;;;;;27.43;25.97;;;;;;;;;;5096025;28;20285;-81
2021/12/24 08:16:44;;;;;;;28.23;26.73;;;;;;;;;;5097622;28;20190;-83
2021/12/24 08:19:13;;;;;;;30.60;28.60;;;;;;;;;;5095281;28;20316;-83
2021/12/24 08:21:41;;;;;;;29.40;27.70;;;;;;;;;;5094702;28;20291;-82
2021/12/24 08:24:08;;;;;;;26.20;24.53;;;;;;;;;;5094112;28;20247;-82
2021/12/24 08:26:35;;;;;;;23.87;22.60;;;;;;;;;;5094322;28;20201;-81
2021/12/24 08:29:01;;;;;;;26.83;25.43;;;;;;;;;;5093919;28;20747;-80
2021/12/24 08:31:29;;;;;;;25.80;24.00;;;;;;;;;;5094219;28;20289;-79
2021/12/24 08:33:55;;;;;;;25.13;23.47;;;;;;;;;;5094166;28;20190;-80
2021/12/24 08:36:22;;;;;;;26.63;24.83;;;;;;;;;;5093830;28;20190;-78
2021/12/24 08:38:50;;;;;;;25.10;23.60;;;;;;;;;;5093857;28;20741;-79
2021/12/24 08:41:17;;;;;;;28.63;26.80;;;;;;;;;;5093990;28;20268;-77
2021/12/24 08:43:44;;;;;;;24.67;23.27;;;;;;;;;;5094150;28;20194;-79
2021/12/24 08:46:10;;;;;;;25.83;24.43;;;;;;;;;;5094066;28;20251;-79
2021/12/24 08:48:37;;;;;;;27.37;25.97;;;;;;;;;;5093972;28;20251;-78
2021/12/24 08:51:04;;;;;;;27.40;25.90;;;;;;;;;;5093630;28;20232;-77
2021/12/24 08:53:30;;;;;;;27.73;26.23;;;;;;;;;;5093842;28;20281;-77
2021/12/24 08:55:58;;;;;;;25.50;24.10;;;;;;;;;;5093871;28;20198;-77
2021/12/24 08:58:25;;;;;;;26.77;25.27;;;;;;;;;;5093739;28;20577;-78
2021/12/24 09:00:52;;;;;;;25.83;24.43;;;;;;;;;;5093762;28;20316;-78
2021/12/24 09:03:19;;;;;;;24.10;22.70;;;;;;;;;;5093782;28;20197;-77
2021/12/24 09:05:47;;;;;;;25.53;23.33;;;;;;;;;;5093746;28;20263;-79
2021/12/24 09:08:13;;;;;;;26.17;24.67;;;;;;;;;;5093574;28;20200;-79
2021/12/24 09:10:40;;;;;;;26.30;24.90;;;;;;;;;;5093121;28;20197;-81
2021/12/24 09:13:08;;;;;;;26.60;24.90;;;;;;;;;;5093669;28;20243;-78
2021/12/24 09:15:35;;;;;;;24.90;23.50;;;;;;;;;;5093500;28;20252;-79
2021/12/24 09:18:04;;;;;;;24.93;23.53;;;;;;;;;;5092883;28;20648;-83
2021/12/24 09:20:36;;;;;;;26.00;24.50;;;;;;;;;;5093045;28;20212;-78
2021/12/24 09:23:03;;;;;;;26.67;25.17;;;;;;;;;;5093016;28;20221;-79
2021/12/24 09:25:31;;;;;;;26.53;25.03;;;;;;;;;;5093285;28;20225;-83
2021/12/24 09:27:58;;;;;;;25.27;23.83;;;;;;;;;;5092470;28;20194;-83
2021/12/24 09:30:27;;;;;;;26.70;25.20;;;;;;;;;;5093053;28;20691;-81
2021/12/24 09:32:54;;;;;;;25.80;24.40;;;;;;;;;;5092870;28;20228;-79
2021/12/24 09:35:21;;;;;;;25.30;23.90;;;;;;;;;;5093207;28;20193;-80
2021/12/24 09:37:48;;;;;;;27.57;25.87;;;;;;;;;;5092803;28;20552;-78
2021/12/24 09:40:15;;;;;;;25.87;24.43;;;;;;;;;;5092633;28;20221;-79
2021/12/24 09:42:42;;;;;;;28.03;26.13;;;;;;;;;;5092937;28;20322;-79
2021/12/24 09:45:10;;;;;;;25.77;24.37;;;;;;;;;;5092810;28;20225;-78
2021/12/24 09:47:38;;;;;;;27.13;25.53;;;;;;;;;;5092490;28;20255;-80
2021/12/24 09:50:06;;;;;;;25.57;23.80;;;;;;;;;;5092765;28;20221;-79
2021/12/24 09:52:33;;;;;;;26.43;24.93;;;;;;;;;;5092359;28;20198;-80
2021/12/24 09:55:07;;;;;;;27.80;26.00;;;;;;;;;;5092677;28;20255;-79
2021/12/24 09:57:33;;;;;;;28.23;26.57;;;;;;;;;;5092359;28;20604;-81
2021/12/24 10:00:00;;;;;;;26.93;25.33;;;;;;;;;;5092679;28;20201;-80
2021/12/24 10:02:37;;;;;;;26.23;24.50;;;;;;;;;;5093101;28;20249;-79
2021/12/24 10:05:05;;;;;;;27.37;25.67;;;;;;;;;;5092618;28;20264;-79
2021/12/24 10:07:36;;;;;;;28.13;26.53;;;;;;;;;;5092531;28;20277;-79
2021/12/24 10:10:06;;;;;;;26.43;24.83;;;;;;;;;;5092669;28;20190;-78
2021/12/24 10:12:33;;;;;;;27.43;25.77;;;;;;;;;;5092591;28;20197;-80
2021/12/24 10:15:01;;;;;;;25.37;23.80;;;;;;;;;;5092194;28;20684;-79
2021/12/24 10:17:30;;;;;;;24.00;22.60;;;;;;;;;;5092219;28;20198;-80
2021/12/24 10:19:58;;;;;;;26.07;24.47;;;;;;;;;;5091963;28;20229;-79
2021/12/24 10:22:26;;;;;;;27.03;25.50;;;;;;;;;;5092348;28;20243;-79
2021/12/24 10:25:00;;;;;;;26.63;25.03;;;;;;;;;;5092278;28;20226;-79
2021/12/24 10:27:28;;;;;;;27.03;25.43;;;;;;;;;;5092584;28;20204;-79
2021/12/24 10:29:54;;;;;;;27.93;26.33;;;;;;;;;;5092389;28;20201;-79
2021/12/24 10:32:21;;;;;;;28.17;26.33;;;;;;;;;;5092657;28;20705;-78
2021/12/24 10:34:48;;;;;;;26.60;25.00;;;;;;;;;;5092054;28;20219;-78
2021/12/24 10:37:18;;;;;;;27.07;25.37;;;;;;;;;;5092117;28;20182;-80
2021/12/24 10:39:48;;;;;;;26.33;24.63;;;;;;;;;;5092633;28;20186;-80
2021/12/24 10:42:17;;;;;;;28.77;27.07;;;;;;;;;;5096304;28;20209;-79
2021/12/24 10:44:45;;;;;;;27.97;25.83;;;;;;;;;;5095945;28;20289;-79
2021/12/24 10:47:15;;;;;;;27.47;25.77;;;;;;;;;;5095901;28;20280;-79
2021/12/24 10:50:07;;;;;;;28.43;26.83;;;;;;;;;;5096214;28;20221;-78
2021/12/24 10:55:27;;;;;;;29.37;27.53;;;;;;;;;;5095726;28;20202;-79
2021/12/24 10:57:56;;;;;;;29.10;27.40;;;;;;;;;;5095723;28;20194;-79
2021/12/24 11:00:25;;;;;;;25.93;24.43;;;;;;;;;;5095562;28;20198;-80
2021/12/24 11:02:54;;;;;;;28.43;26.83;;;;;;;;;;5095932;28;20277;-79
2021/12/24 11:05:31;;;;;;;27.83;26.23;;;;;;;;;;5094684;28;20202;-80
2021/12/24 11:07:59;;;;;;;26.80;25.30;;;;;;;;;;5095887;28;20198;-79
2021/12/24 11:10:28;;;;;;;24.67;23.27;;;;;;;;;;5095493;28;20225;-79
2021/12/24 11:12:56;;;;;;;26.73;25.23;;;;;;;;;;5095723;28;20276;-79
2021/12/24 11:15:33;;;;;;;25.73;24.30;;;;;;;;;;5095709;28;20194;-80
2021/12/24 11:18:01;;;;;;;26.67;25.07;;;;;;;;;;5095651;28;20189;-80
2021/12/24 11:20:29;;;;;;;24.10;22.60;;;;;;;;;;5095279;28;20190;-79
2021/12/24 11:22:57;;;;;;;26.03;24.43;;;;;;;;;;5095575;28;20251;-80
2021/12/24 11:25:25;;;;;;;26.63;25.03;;;;;;;;;;5095631;28;20221;-79
2021/12/24 11:27:54;;;;;;;25.47;23.77;;;;;;;;;;5095168;28;20288;-80
2021/12/24 11:30:22;;;;;;;25.97;24.40;;;;;;;;;;5095156;28;20212;-80
2021/12/24 11:32:49;;;;;;;26.50;25.00;;;;;;;;;;5095108;28;20605;-80
2021/12/24 11:35:17;;;;;;;28.37;26.63;;;;;;;;;;5095346;28;20247;-80
2021/12/24 11:37:44;;;;;;;27.40;25.60;;;;;;;;;;5095288;28;20367;-80
2021/12/24 11:40:13;;;;;;;26.03;24.53;;;;;;;;;;5094870;28;20759;-79
2021/12/24 11:42:40;;;;;;;25.53;24.03;;;;;;;;;;5095157;28;20233;-80
2021/12/24 11:45:09;;;;;;;26.97;25.33;;;;;;;;;;5094683;28;20198;-79
2021/12/24 11:47:35;;;;;;;25.93;24.43;;;;;;;;;;5095580;28;20285;-80
2021/12/24 11:50:02;;;;;;;26.83;25.13;;;;;;;;;;5094991;28;20640;-81
2021/12/24 11:52:29;;;;;;;29.90;28.10;;;;;;;;;;5094464;28;20233;-80
2021/12/24 11:54:56;;;;;;;25.40;23.80;;;;;;;;;;5094937;28;20224;-80
2021/12/24 11:57:23;;;;;;;27.17;25.57;;;;;;;;;;5094596;28;20670;-80
2021/12/24 11:59:49;;;;;;;29.13;27.30;;;;;;;;;;5094601;28;20570;-80
2021/12/24 12:02:31;;;;;;;29.03;27.20;;;;;;;;;;5094794;28;20226;-81
2021/12/24 12:05:12;;;;;;;26.10;24.60;;;;;;;;;;5094637;28;20197;-80
2021/12/24 12:07:39;;;;;;;28.43;26.73;;;;;;;;;;5094471;28;20660;-80
2021/12/24 12:10:07;;;;;;;28.67;26.87;;;;;;;;;;5094686;28;20656;-79
2021/12/24 12:12:34;;;;;;;26.80;25.20;;;;;;;;;;5094250;28;20682;-80
2021/12/24 12:15:19;;;;;;;28.23;26.43;;;;;;;;;;5094891;28;20605;-80
2021/12/24 12:17:49;;;;;;;27.40;25.80;;;;;;;;;;5094497;28;20277;-80
2021/12/24 12:23:16;;;;;;;28.50;26.50;;;;;;;;;;5110516;27;21094;-80
2021/12/24 12:25:43;;;;;;;28.97;27.37;;;;;;;;;;5109913;28;20732;-81
2021/12/24 12:28:15;;;;;;;26.57;24.97;;;;;;;;;;5109839;28;20193;-82
2021/12/24 12:30:48;;;;;;;26.53;24.93;;;;;;;;;;5109770;28;20242;-80
2021/12/24 12:33:15;;;;;;;27.57;25.97;;;;;;;;;;5110100;28;20189;-80
2021/12/24 12:35:43;;;;;;;27.50;25.90;;;;;;;;;;5109767;28;20204;-79
2021/12/24 12:38:28;;;;;;;26.27;24.77;;;;;;;;;;5109987;28;20197;-82
2021/12/24 12:41:15;;;;;;;25.20;23.70;;;;;;;;;;5109928;28;20200;-82
2021/12/24 12:43:42;;;;;;;26.93;25.20;;;;;;;;;;5109765;28;20197;-81
2021/12/24 12:46:18;;;;;;;26.13;24.63;;;;;;;;;;5109608;28;20280;-82
2021/12/24 12:48:49;;;;;;;26.03;24.53;;;;;;;;;;5109530;28;20189;-81
2021/12/24 12:51:16;;;;;;;24.73;23.10;;;;;;;;;;5109747;28;20200;-83
2021/12/24 12:53:44;;;;;;;24.80;23.30;;;;;;;;;;5109451;28;20655;-81
2021/12/24 12:56:13;;;;;;;26.13;24.53;;;;;;;;;;5109470;28;20197;-81
2021/12/24 12:58:40;;;;;;;25.33;23.73;;;;;;;;;;5109562;28;20273;-81
2021/12/24 13:01:09;;;;;;;24.80;23.40;;;;;;;;;;5109442;28;20201;-81
2021/12/24 13:04:03;;;;;;;25.33;23.63;;;;;;;;;;5109847;28;20197;-81
2021/12/24 13:06:46;;;;;;;23.83;22.43;;;;;;;;;;5109457;28;20651;-82
2021/12/24 13:09:16;;;;;;;26.47;24.93;;;;;;;;;;5109517;28;20663;-81
2021/12/24 13:11:44;;;;;;;23.50;22.00;;;;;;;;;;5109241;28;20246;-81
2021/12/24 13:14:11;;;;;;;25.53;23.73;;;;;;;;;;5109176;28;20563;-81
2021/12/24 13:16:44;;;;;;;25.80;24.17;;;;;;;;;;5109031;28;20281;-81
2021/12/24 13:24:52;;;;;;;25.57;23.97;;;;;;;;;;5109246;28;20314;-82
2021/12/24 13:27:20;;;;;;;24.90;23.30;;;;;;;;;;5108812;28;20186;-81
2021/12/24 13:29:47;;;;;;;23.80;22.40;;;;;;;;;;5108693;28;20796;-81
2021/12/24 13:32:13;;;;;;;24.70;23.20;;;;;;;;;;5108552;28;20197;-82
2021/12/24 13:34:40;;;;;;;26.60;24.50;;;;;;;;;;5095575;28;20233;-81
2021/12/24 13:37:12;;;;;;;24.40;23.00;;;;;;;;;;5094934;28;20230;-80
2021/12/24 13:39:45;;;;;;;24.10;22.60;;;;;;;;;;5094933;28;20280;-81
2021/12/24 13:42:13;;;;;;;25.47;23.63;;;;;;;;;;5094896;28;20271;-82
2021/12/24 13:44:40;;;;;;;24.17;22.60;;;;;;;;;;5094839;28;20194;-81
2021/12/24 13:47:10;;;;;;;23.80;22.40;;;;;;;;;;5095149;28;20251;-80
2021/12/24 13:55:18;;;;;;;25.67;24.03;;;;;;;;;;5094811;28;20177;-80
2021/12/24 13:57:52;;;;;;;26.17;24.33;;;;;;;;;;5094936;28;20228;-80
2021/12/24 14:00:19;;;;;;;24.17;22.60;;;;;;;;;;5094839;28;20182;-81
2021/12/24 14:02:51;;;;;;;23.50;22.03;;;;;;;;;;5094754;28;20241;-80
2021/12/24 14:05:18;;;;;;;25.57;23.43;;;;;;;;;;5094542;28;20190;-81
2021/12/24 14:07:47;;;;;;;27.67;25.10;;;;;;;;;;5094376;28;20648;-80
2021/12/24 14:10:25;;;;;;;24.50;23.00;;;;;;;;;;5094631;28;20229;-80
2021/12/24 14:12:54;;;;;;;26.43;24.70;;;;;;;;;;5094259;28;20285;-80
2021/12/24 14:15:26;;;;;;;25.33;23.83;;;;;;;;;;5094538;28;20190;-81
2021/12/24 14:18:17;;;;;;;25.77;24.27;;;;;;;;;;5094256;28;20186;-80
2021/12/24 14:21:44;;;;;;;24.10;22.70;;;;;;;;;;5093999;28;20186;-80
2021/12/24 14:23:47;;;;;;;23.53;22.13;;;;;;;;;;5093897;28;20194;-81
2021/12/24 14:26:14;;;;;;;23.07;21.77;;;;;;;;;;5094106;28;20200;-80
2021/12/24 14:28:52;;;;;;;24.40;22.90;;;;;;;;;;5094288;28;20189;-80
2021/12/24 14:31:18;;;;;;;24.13;22.63;;;;;;;;;;5094308;28;20186;-81
2021/12/24 14:33:46;;;;;;;23.93;22.23;;;;;;;;;;5094226;28;20190;-82
2021/12/24 14:36:17;;;;;;;24.87;23.17;;;;;;;;;;5094122;28;20225;-80
2021/12/24 14:38:43;;;;;;;24.07;22.67;;;;;;;;;;5094375;28;20194;-80
2021/12/24 14:41:17;;;;;;;24.57;23.03;;;;;;;;;;5093771;28;20690;-80
2021/12/24 14:43:43;;;;;;;23.30;21.90;;;;;;;;;;5093681;28;20768;-80
2021/12/24 14:46:12;;;;;;;24.27;22.87;;;;;;;;;;5092940;28;20193;-80
2021/12/24 14:48:38;;;;;;;23.93;22.53;;;;;;;;;;5093616;28;20220;-80
2021/12/24 14:51:06;;;;;;;29.07;26.17;;;;;;;;;;5093640;28;20236;-80
2021/12/24 14:53:36;;;;;;;26.23;24.47;;;;;;;;;;5093554;28;20728;-80
2021/12/24 14:56:04;;;;;;;23.87;22.43;;;;;;;;;;5093522;28;20197;-81
2021/12/24 14:58:32;;;;;;;23.40;22.00;;;;;;;;;;5093365;28;20721;-80
2021/12/24 15:00:59;;;;;;;22.80;21.50;;;;;;;;;;5093451;28;20193;-80
2021/12/24 15:03:31;;;;;;;24.60;23.20;;;;;;;;;;5093550;28;20316;-80
2021/12/24 15:05:58;;;;;;;24.73;23.23;;;;;;;;;;5093619;28;20194;-80
2021/12/24 15:08:25;;;;;;;23.63;22.23;;;;;;;;;;5093570;28;20197;-80
2021/12/24 15:11:13;;;;;;;22.30;21.00;;;;;;;;;;5093474;28;20281;-80
2021/12/24 15:13:41;;;;;;;22.77;21.47;;;;;;;;;;5089695;28;20194;-80
2021/12/24 15:16:08;;;;;;;22.57;21.27;;;;;;;;;;5093421;28;20190;-79
2021/12/24 15:18:36;;;;;;;23.83;22.33;;;;;;;;;;5093313;28;20276;-79
2021/12/24 15:21:03;;;;;;;22.30;21.00;;;;;;;;;;5092826;28;20264;-80
2021/12/24 15:23:30;;;;;;;23.00;20.93;;;;;;;;;;5093239;28;20214;-79
2021/12/24 15:25:57;;;;;;;22.27;21.00;;;;;;;;;;5092950;28;20687;-79
2021/12/24 15:28:24;;;;;;;24.97;23.30;;;;;;;;;;5093194;28;20281;-80
2021/12/24 15:30:52;;;;;;;32.13;30.30;;;;;;;;;;5093129;28;20205;-80
2021/12/24 15:33:21;;;;;;;23.80;22.40;;;;;;;;;;5092810;28;20201;-79
2021/12/24 15:35:50;;;;;;;22.37;21.17;;;;;;;;;;5093044;28;20573;-77
2021/12/24 15:38:17;;;;;;;21.77;20.57;;;;;;;;;;5092996;28;20229;-77
2021/12/24 15:40:43;;;;;;;23.80;22.50;;;;;;;;;;5092654;28;20198;-77
2021/12/24 15:43:10;;;;;;;21.70;20.60;;;;;;;;;;5092533;28;20230;-77
2021/12/24 15:45:38;;;;;;;22.77;21.47;;;;;;;;;;5092885;28;20193;-77
2021/12/24 15:48:05;;;;;;;22.40;21.20;;;;;;;;;;5092563;28;20194;-77
2021/12/24 15:50:32;;;;;;;21.70;20.60;;;;;;;;;;5092822;28;20683;-77
2021/12/24 15:53:00;;;;;;;24.57;23.27;;;;;;;;;;5092490;28;20629;-77
2021/12/24 15:55:26;;;;;;;23.03;21.83;;;;;;;;;;5092353;28;20194;-77
2021/12/24 15:57:53;;;;;;;26.90;25.50;;;;;;;;;;5092269;28;20402;-77